Kindred, ND (58051)

9:02 PM CST on February 11, 2016 (GMT -0600)
Deer Creek | | Change Station
CLOSE
Current Station
Personal Weather Station
Location: Fargo, ND
Elevation: 902 ft
Nearby Weather Stations

Elev 902 ft 46.80 °N, 96.89 °W | Updated 2 seconds ago

Overcast
Overcast
10.4 °F
Feels Like 10 °F
N
2.7
Wind Variable Wind from West
Gusts 4.7 mph

Today
High -- | Low -- °F
--% Chance of Precip.
Yesterday
High -- | Low -- °F
Precip. -- in
Pressure 30.35 in
Visibility 10.0 miles
Clouds Mostly Cloudy 4300 ft
Windchill 10 °F
Dew Point 8 °F
Humidity 88%
Rainfall 0.00 in
Snow Depth Not available.
7:38 AM 5:46 PM
Waxing Crescent, 16% visible
METAR KFAR 120253Z 30006KT 10SM BKN043 M11/M14 A3028 RMK AO2 SLP276 T11061139 51010
Pressure 30.35 in
Visibility 10.0 miles
Clouds Mostly Cloudy 4300 ft
Windchill 10 °F
Dew Point 8 °F
Humidity 88%
Rainfall 0.00 in
Snow Depth Not available.
7:38 AM 5:46 PM
Waxing Crescent, 16% visible
METAR KFAR 120253Z 30006KT 10SM BKN043 M11/M14 A3028 RMK AO2 SLP276 T11061139 51010

10-Day Weather Forecast

Almanac

Astronomy

Feb. 11, 2016 Rise Set
Actual Time
Civil Twilight
Nautical Twilight
Astronomical Twilight
Moon
Length of Visible Light
Length of Day
Tomorrow will be .
, % of the Moon is Illuminated

Today's Extremes

State Highs State Lows

Community

WunderPhotos

Upload Photos

1,892,243 photos uploaded!

WunderBlog® & News

Nearby

Air Quality

  Air Quality AQ Index Pollutant
Not available.

Snow Depth

Station Depth Elevation

Earthquake Activity

City Distance Mag. Time & Date
Minimum magnitude displayed is 2.5.

Coastal Water Temperatures

Place Temperature

Stations

Nearby Weather Stations

Station Location Temp. Windchill Dew Point Humidity Wind Precip. Elev Updated Type
                   

Watches & Warnings

There are currently no watches in effect.